createdAt,value
2018-07-29T00:00:30.005Z,10.40
2018-07-29T00:02:58.136Z,13.20
2018-07-29T00:05:26.286Z,11.00
2018-07-29T00:07:54.450Z,11.33
2018-07-29T00:10:22.697Z,19.13
2018-07-29T00:12:50.894Z,10.00
2018-07-29T00:15:19.052Z,12.00
2018-07-29T00:17:47.240Z,10.63
2018-07-29T00:20:15.460Z,13.40
2018-07-29T00:22:43.642Z,13.20
2018-07-29T00:25:11.812Z,10.87
2018-07-29T00:27:39.997Z,10.53
2018-07-29T00:30:08.196Z,10.50
2018-07-29T00:32:36.415Z,12.20
2018-07-29T00:35:05.016Z,12.20
2018-07-29T00:37:33.194Z,9.60
2018-07-29T00:40:01.400Z,24.17
2018-07-29T00:42:29.605Z,15.80
2018-07-29T00:44:57.763Z,11.87
2018-07-29T00:47:25.968Z,10.90
2018-07-29T00:49:54.147Z,10.60
2018-07-29T00:52:22.343Z,14.27
2018-07-29T00:54:50.576Z,13.20
2018-07-29T00:57:18.703Z,12.93
2018-07-29T00:59:46.869Z,13.73
2018-07-29T01:02:15.045Z,10.13
2018-07-29T01:04:43.183Z,13.70
2018-07-29T01:07:11.363Z,14.10
2018-07-29T01:09:39.536Z,15.90
2018-07-29T01:12:07.884Z,9.47
2018-07-29T01:14:36.016Z,11.03
2018-07-29T01:17:04.172Z,15.13
2018-07-29T01:19:32.349Z,11.30
2018-07-29T01:22:00.543Z,14.50
2018-07-29T01:24:28.707Z,11.63
2018-07-29T01:26:56.914Z,13.32
2018-07-29T01:29:25.090Z,9.85
2018-07-29T01:31:53.288Z,14.15
2018-07-29T01:34:21.437Z,14.00
2018-07-29T01:36:49.595Z,12.05
2018-07-29T01:39:17.737Z,12.70
2018-07-29T01:41:45.889Z,14.95
2018-07-29T01:44:14.064Z,11.90
2018-07-29T01:46:42.238Z,12.78
2018-07-29T01:49:10.393Z,13.13
2018-07-29T01:51:38.556Z,10.18
2018-07-29T01:54:06.750Z,15.78
2018-07-29T01:56:34.979Z,13.53
2018-07-29T01:59:03.380Z,13.43
2018-07-29T02:01:31.568Z,15.53
2018-07-29T02:03:59.812Z,23.02
2018-07-29T02:06:28.076Z,15.98
2018-07-29T02:08:56.308Z,19.20
2018-07-29T02:11:24.544Z,20.43
2018-07-29T02:13:53.053Z,20.55
2018-07-29T02:16:21.298Z,15.80
2018-07-29T02:18:49.577Z,16.73
2018-07-29T02:21:17.901Z,16.10
2018-07-29T02:23:46.223Z,20.08
2018-07-29T02:26:14.473Z,23.67
2018-07-29T02:28:42.728Z,21.97
2018-07-29T02:31:10.913Z,20.97
2018-07-29T02:33:39.214Z,19.23
2018-07-29T02:36:07.434Z,21.15
2018-07-29T02:38:35.650Z,21.02
2018-07-29T02:41:03.864Z,21.35
2018-07-29T02:43:32.069Z,19.37
2018-07-29T02:46:00.338Z,20.45
2018-07-29T02:48:28.533Z,22.58
2018-07-29T02:50:56.696Z,22.20
2018-07-29T02:53:24.913Z,20.45
2018-07-29T02:55:53.171Z,19.67
2018-07-29T02:58:21.471Z,17.62
2018-07-29T03:00:49.677Z,19.23
2018-07-29T03:03:17.983Z,19.10
2018-07-29T03:05:46.176Z,18.50
2018-07-29T03:08:14.464Z,20.12
2018-07-29T03:10:42.696Z,18.32
2018-07-29T03:13:10.976Z,22.82
2018-07-29T03:15:39.216Z,19.85
2018-07-29T03:18:07.451Z,17.65
2018-07-29T03:20:35.613Z,25.23
2018-07-29T03:23:03.882Z,19.87
2018-07-29T03:25:32.044Z,17.40
2018-07-29T03:28:00.323Z,19.85
2018-07-29T03:30:28.584Z,33.30
2018-07-29T03:32:56.857Z,22.87
2018-07-29T03:35:25.124Z,17.25
2018-07-29T03:37:53.497Z,19.05
2018-07-29T03:40:21.713Z,24.82
2018-07-29T03:42:49.939Z,18.48
2018-07-29T03:45:18.132Z,19.15
2018-07-29T03:47:46.309Z,21.93
2018-07-29T03:50:14.561Z,19.42
2018-07-29T03:52:42.733Z,18.85
2018-07-29T03:55:10.956Z,22.58
2018-07-29T03:57:39.352Z,21.97
2018-07-29T04:00:07.552Z,19.15
2018-07-29T04:02:35.789Z,20.10
2018-07-29T04:05:04.053Z,20.37
2018-07-29T04:07:32.239Z,20.00
2018-07-29T04:10:00.479Z,18.40
2018-07-29T04:12:28.683Z,20.32
2018-07-29T04:14:57.010Z,15.60
2018-07-29T04:17:25.339Z,17.20
2018-07-29T04:19:53.546Z,21.35
2018-07-29T04:22:21.784Z,18.67
2018-07-29T04:24:50.147Z,19.12
2018-07-29T04:27:18.442Z,14.18
2018-07-29T04:29:46.774Z,15.10
2018-07-29T04:32:15.221Z,17.60
2018-07-29T04:34:43.493Z,17.05
2018-07-29T04:37:11.708Z,13.75
2018-07-29T04:39:39.939Z,11.40
2018-07-29T04:42:08.200Z,14.10
2018-07-29T04:44:36.456Z,10.90
2018-07-29T04:47:04.712Z,10.88
2018-07-29T04:49:33.085Z,11.95
2018-07-29T04:52:01.316Z,14.85
2018-07-29T04:54:29.581Z,13.68
2018-07-29T04:56:57.740Z,11.00
2018-07-29T04:59:26.141Z,10.23
2018-07-29T05:01:54.569Z,8.43
2018-07-29T05:04:22.913Z,11.80
2018-07-29T05:06:51.177Z,8.23
2018-07-29T05:09:19.415Z,18.17
2018-07-29T05:11:47.724Z,12.68
2018-07-29T05:14:15.956Z,9.47
2018-07-29T05:16:44.266Z,6.47
2018-07-29T05:19:12.748Z,8.65
2018-07-29T05:21:41.381Z,8.60
2018-07-29T05:24:09.828Z,10.63
2018-07-29T05:26:38.264Z,13.40
2018-07-29T05:29:06.750Z,6.37
2018-07-29T05:31:35.371Z,5.78
2018-07-29T05:34:05.474Z,4.40
2018-07-29T05:36:33.832Z,7.50
2018-07-29T05:39:02.207Z,6.62
2018-07-29T05:41:30.490Z,9.20
2018-07-29T05:43:58.714Z,6.87
2018-07-29T05:46:26.884Z,5.03
2018-07-29T05:48:55.408Z,5.70
2018-07-29T05:51:23.740Z,6.10
2018-07-29T05:53:52.172Z,6.43
2018-07-29T05:56:20.591Z,6.55
2018-07-29T05:58:48.951Z,5.15
2018-07-29T06:01:17.227Z,13.13
2018-07-29T06:03:45.653Z,9.50
2018-07-29T06:06:13.966Z,6.00
2018-07-29T06:08:42.179Z,7.70
2018-07-29T06:11:10.480Z,5.63
2018-07-29T06:13:38.701Z,7.53
2018-07-29T06:16:07.150Z,7.73
2018-07-29T06:18:35.370Z,8.40
2018-07-29T06:21:03.638Z,5.13
2018-07-29T06:23:31.872Z,4.37
2018-07-29T06:26:00.070Z,9.00
2018-07-29T06:28:28.213Z,7.27
2018-07-29T06:30:56.444Z,2.93
2018-07-29T06:33:25.104Z,5.10
2018-07-29T06:35:53.476Z,5.03
2018-07-29T06:38:22.411Z,6.43
2018-07-29T06:40:50.547Z,7.53
2018-07-29T06:43:18.736Z,3.97
2018-07-29T06:45:46.920Z,4.47
2018-07-29T06:48:15.139Z,7.77
2018-07-29T06:50:43.321Z,8.17
2018-07-29T06:53:11.522Z,6.03
2018-07-29T06:55:40.061Z,4.93
2018-07-29T06:58:08.289Z,3.43
2018-07-29T07:00:36.495Z,3.50
2018-07-29T07:03:04.765Z,4.80
2018-07-29T07:05:32.984Z,4.57
2018-07-29T07:08:01.149Z,7.90
2018-07-29T07:10:29.560Z,6.67
2018-07-29T07:12:57.780Z,5.43
2018-07-29T07:15:26.017Z,6.00
2018-07-29T07:17:54.195Z,6.57
2018-07-29T07:20:22.369Z,4.60
2018-07-29T07:22:50.579Z,6.10
2018-07-29T07:25:18.719Z,9.50
2018-07-29T07:27:46.907Z,4.97
2018-07-29T07:30:15.121Z,5.43
2018-07-29T07:32:43.417Z,4.67
2018-07-29T07:35:11.536Z,3.17
2018-07-29T07:37:39.896Z,5.23
2018-07-29T07:40:08.163Z,4.37
2018-07-29T07:42:36.540Z,4.13
2018-07-29T07:45:05.159Z,4.67
2018-07-29T07:47:33.405Z,6.80
2018-07-29T07:50:08.026Z,4.93
2018-07-29T07:52:36.394Z,4.67
2018-07-29T07:55:04.953Z,6.77
2018-07-29T07:57:33.140Z,6.93
2018-07-29T08:00:01.489Z,6.83
2018-07-29T08:02:29.719Z,13.90
2018-07-29T08:04:58.134Z,9.53
2018-07-29T08:07:26.382Z,5.20
2018-07-29T08:09:54.954Z,5.90
2018-07-29T08:12:23.263Z,2.20
2018-07-29T08:14:51.456Z,2.93
2018-07-29T08:17:27.683Z,8.47
2018-07-29T08:19:55.889Z,7.47
2018-07-29T08:22:24.102Z,5.70
2018-07-29T08:24:52.232Z,5.03
2018-07-29T08:27:20.469Z,6.07
2018-07-29T08:29:48.632Z,6.77
2018-07-29T08:32:16.774Z,4.83
2018-07-29T08:34:44.970Z,4.90
2018-07-29T08:37:13.864Z,3.13
2018-07-29T08:39:42.017Z,4.80
2018-07-29T08:42:10.188Z,8.63
2018-07-29T08:44:38.324Z,6.00
2018-07-29T08:47:06.497Z,6.80
2018-07-29T08:49:34.692Z,4.73
2018-07-29T08:52:02.964Z,8.70
2018-07-29T08:54:31.119Z,8.43
2018-07-29T08:56:59.360Z,6.27
2018-07-29T08:59:27.552Z,4.13
2018-07-29T09:01:55.727Z,5.70
2018-07-29T09:04:24.053Z,4.30
2018-07-29T09:06:52.256Z,5.20
2018-07-29T09:09:20.428Z,5.73
2018-07-29T09:11:48.631Z,3.00
2018-07-29T09:14:16.840Z,5.40
2018-07-29T09:16:45.054Z,3.77
2018-07-29T09:19:13.305Z,4.70
2018-07-29T09:21:41.637Z,5.53
2018-07-29T09:24:09.796Z,6.53
2018-07-29T09:26:38.054Z,6.13
2018-07-29T09:29:06.585Z,4.57
2018-07-29T09:31:34.740Z,6.03
2018-07-29T09:34:03.967Z,3.47
2018-07-29T09:36:32.156Z,6.10
2018-07-29T09:39:00.332Z,3.07
2018-07-29T09:41:28.500Z,2.97
2018-07-29T09:43:57.320Z,4.93
2018-07-29T09:46:25.591Z,5.53
2018-07-29T09:48:53.744Z,3.97
2018-07-29T09:51:21.942Z,6.07
2018-07-29T09:53:50.401Z,4.13
2018-07-29T09:56:18.545Z,4.83
2018-07-29T09:58:46.708Z,3.50
2018-07-29T10:01:14.985Z,5.80
2018-07-29T10:03:43.424Z,3.80
2018-07-29T10:06:11.601Z,3.17
2018-07-29T10:08:39.759Z,2.80
2018-07-29T10:11:07.920Z,3.43
2018-07-29T10:13:36.094Z,2.17
2018-07-29T10:16:04.296Z,4.03
2018-07-29T10:18:32.460Z,8.53
2018-07-29T10:21:00.739Z,7.10
2018-07-29T10:23:28.924Z,3.50
2018-07-29T10:25:57.092Z,3.83
2018-07-29T10:28:25.289Z,4.07
2018-07-29T10:30:53.515Z,5.90
2018-07-29T10:33:21.725Z,2.63
2018-07-29T10:35:50.033Z,2.83
2018-07-29T10:38:18.341Z,2.80
2018-07-29T10:40:46.658Z,4.60
2018-07-29T10:43:14.895Z,5.23
2018-07-29T10:45:43.159Z,7.80
2018-07-29T10:48:11.369Z,5.40
2018-07-29T10:50:39.529Z,4.40
2018-07-29T10:53:08.122Z,4.90
2018-07-29T10:55:36.338Z,7.40
2018-07-29T10:58:04.587Z,4.20
2018-07-29T11:00:32.749Z,3.13
2018-07-29T11:03:00.935Z,4.20
2018-07-29T11:05:29.118Z,4.87
2018-07-29T11:07:57.300Z,5.30
2018-07-29T11:10:25.440Z,5.60
2018-07-29T11:12:53.589Z,3.40
2018-07-29T11:15:21.806Z,4.13
2018-07-29T11:17:49.975Z,2.87
2018-07-29T11:20:18.211Z,4.03
2018-07-29T11:22:46.416Z,5.10
2018-07-29T11:25:14.596Z,7.17
2018-07-29T11:27:42.859Z,4.00
2018-07-29T11:30:11.057Z,5.90
2018-07-29T11:32:39.243Z,5.70
2018-07-29T11:35:08.170Z,3.93
2018-07-29T11:37:36.382Z,5.27
2018-07-29T11:40:04.617Z,7.13
2018-07-29T11:42:32.907Z,5.67
2018-07-29T11:45:01.128Z,3.83
2018-07-29T11:47:29.288Z,4.23
2018-07-29T11:49:57.467Z,5.27
2018-07-29T11:52:25.686Z,5.93
2018-07-29T11:54:54.014Z,3.20
2018-07-29T11:57:22.217Z,5.53
2018-07-29T11:59:50.528Z,8.37
2018-07-29T12:02:18.700Z,4.63
2018-07-29T12:04:46.950Z,5.30
2018-07-29T12:07:15.151Z,6.57
2018-07-29T12:09:43.376Z,3.53
2018-07-29T12:12:11.608Z,3.37
2018-07-29T12:14:39.785Z,6.80
2018-07-29T12:17:08.163Z,4.13
2018-07-29T12:19:36.352Z,4.10
2018-07-29T12:22:04.549Z,3.33
2018-07-29T12:24:32.797Z,3.60
2018-07-29T12:27:01.174Z,3.63
2018-07-29T12:29:29.406Z,4.43
2018-07-29T12:31:57.634Z,3.27
2018-07-29T12:34:25.824Z,3.27
2018-07-29T12:36:54.100Z,3.73
2018-07-29T12:39:22.291Z,6.03
2018-07-29T12:41:50.542Z,6.93
2018-07-29T12:44:18.750Z,2.20
2018-07-29T12:46:46.972Z,5.63
2018-07-29T12:49:15.228Z,3.60
2018-07-29T12:51:43.489Z,5.77
2018-07-29T12:54:11.675Z,3.17
2018-07-29T12:56:39.832Z,3.57
2018-07-29T12:59:08.062Z,4.33
2018-07-29T13:01:36.289Z,11.10
2018-07-29T13:04:08.308Z,3.53
2018-07-29T13:06:37.296Z,4.43
2018-07-29T13:09:07.951Z,2.53
2018-07-29T13:11:36.552Z,3.63
2018-07-29T13:14:04.759Z,5.20
2018-07-29T13:16:33.041Z,5.47
2018-07-29T13:19:01.249Z,3.40
2018-07-29T13:21:29.501Z,3.63
2018-07-29T13:23:57.689Z,5.10
2018-07-29T13:26:26.150Z,2.80
2018-07-29T13:28:54.319Z,8.10
2018-07-29T13:31:22.501Z,9.10
2018-07-29T13:33:50.789Z,3.20
2018-07-29T13:36:19.017Z,3.13
2018-07-29T13:38:47.322Z,3.87
2018-07-29T13:41:15.547Z,3.07
2018-07-29T13:43:44.085Z,3.70
2018-07-29T13:46:12.608Z,5.37
2018-07-29T13:48:40.807Z,4.77
2018-07-29T13:51:09.570Z,6.10
2018-07-29T13:53:37.974Z,3.83
2018-07-29T13:56:06.482Z,4.40
2018-07-29T13:58:34.715Z,3.93
2018-07-29T14:01:02.908Z,4.73
2018-07-29T14:03:31.292Z,3.47
2018-07-29T14:05:59.490Z,4.40
2018-07-29T14:08:28.084Z,4.37
2018-07-29T14:10:56.436Z,3.80
2018-07-29T14:13:24.872Z,3.17
2018-07-29T14:15:53.147Z,4.57
2018-07-29T14:18:21.392Z,5.40
2018-07-29T14:20:49.685Z,4.10
2018-07-29T14:23:18.508Z,4.13
2018-07-29T14:25:46.821Z,4.40
2018-07-29T14:28:15.129Z,5.40
2018-07-29T14:30:43.351Z,6.90
2018-07-29T14:33:11.587Z,5.03
2018-07-29T14:35:40.718Z,3.90
2018-07-29T14:38:08.985Z,5.60
2018-07-29T14:40:37.328Z,4.00
2018-07-29T14:43:05.677Z,3.57
2018-07-29T14:45:34.099Z,3.83
2018-07-29T14:48:02.326Z,4.33
2018-07-29T14:50:30.569Z,6.20
2018-07-29T14:52:58.961Z,4.40
2018-07-29T14:55:27.176Z,4.73
2018-07-29T14:57:55.361Z,4.43
2018-07-29T15:00:23.624Z,5.30
2018-07-29T15:02:51.921Z,4.37
2018-07-29T15:05:20.148Z,4.27
2018-07-29T15:07:48.353Z,5.53
2018-07-29T15:10:20.773Z,5.40
2018-07-29T15:12:49.107Z,5.20
2018-07-29T15:15:17.572Z,6.70
2018-07-29T15:17:46.018Z,5.07
2018-07-29T15:20:14.336Z,5.60
2018-07-29T15:22:42.828Z,5.47
2018-07-29T15:25:11.113Z,4.67
2018-07-29T15:27:39.353Z,4.73
2018-07-29T15:30:09.030Z,5.20
2018-07-29T15:32:37.246Z,8.30
2018-07-29T15:35:05.834Z,5.10
2018-07-29T15:37:34.044Z,4.50
2018-07-29T15:40:02.281Z,4.40
2018-07-29T15:42:30.504Z,5.10
2018-07-29T15:44:58.862Z,6.70
2018-07-29T15:47:27.085Z,8.27
2018-07-29T15:49:55.301Z,13.40
2018-07-29T15:52:23.568Z,5.27
2018-07-29T15:54:52.002Z,7.73
2018-07-29T15:57:20.480Z,5.50
2018-07-29T15:59:51.089Z,4.63
2018-07-29T16:02:19.365Z,4.30
2018-07-29T16:04:47.704Z,4.83
2018-07-29T16:07:17.112Z,5.30
2018-07-29T16:09:45.436Z,5.63
2018-07-29T16:12:13.816Z,4.43
2018-07-29T16:14:41.994Z,5.27
2018-07-29T16:17:10.320Z,5.47
2018-07-29T16:19:38.303Z,4.73
2018-07-29T16:22:06.566Z,4.80
2018-07-29T16:24:34.803Z,4.80
2018-07-29T16:27:03.386Z,5.40
2018-07-29T16:29:31.656Z,5.30
2018-07-29T16:31:59.908Z,5.83
2018-07-29T16:34:28.137Z,5.20
2018-07-29T16:36:56.490Z,5.20
2018-07-29T16:39:24.768Z,6.40
2018-07-29T16:41:53.547Z,7.10
2018-07-29T16:44:22.108Z,5.33
2018-07-29T16:46:50.340Z,4.93
2018-07-29T16:49:18.343Z,6.70
2018-07-29T16:51:46.676Z,5.60
2018-07-29T16:54:14.978Z,5.10
2018-07-29T16:56:43.313Z,5.43
2018-07-29T16:59:11.514Z,6.83
2018-07-29T17:01:39.752Z,4.73
2018-07-29T17:04:07.952Z,5.30
2018-07-29T17:06:36.155Z,4.83
2018-07-29T17:09:07.429Z,8.90
2018-07-29T17:11:35.568Z,5.50
2018-07-29T17:14:04.370Z,6.23
2018-07-29T17:16:33.020Z,4.57
2018-07-29T17:19:01.204Z,5.50
2018-07-29T17:21:29.468Z,4.67
2018-07-29T17:23:57.691Z,4.33
2018-07-29T17:26:25.924Z,6.50
2018-07-29T17:28:54.363Z,5.50
2018-07-29T17:31:23.081Z,8.40
2018-07-29T17:33:51.248Z,5.17
2018-07-29T17:36:19.436Z,6.47
2018-07-29T17:38:48.084Z,4.47
2018-07-29T17:41:16.356Z,5.33
2018-07-29T17:43:44.856Z,4.60
2018-07-29T17:46:13.038Z,5.03
2018-07-29T17:48:41.327Z,4.50
2018-07-29T17:51:09.499Z,4.30
2018-07-29T17:53:37.836Z,5.00
2018-07-29T17:56:05.955Z,4.60
2018-07-29T17:58:34.110Z,4.70
2018-07-29T18:01:02.297Z,4.80
2018-07-29T18:03:30.501Z,4.63
2018-07-29T18:05:58.764Z,5.47
2018-07-29T18:08:27.036Z,4.87
2018-07-29T18:10:55.529Z,5.53
2018-07-29T18:13:23.768Z,5.00
2018-07-29T18:15:51.949Z,6.90
2018-07-29T18:18:20.224Z,4.73
2018-07-29T18:20:48.436Z,5.03
2018-07-29T18:23:16.836Z,4.70
2018-07-29T18:25:44.906Z,4.90
2018-07-29T18:28:13.152Z,5.37
2018-07-29T18:30:42.257Z,5.50
2018-07-29T18:33:10.605Z,5.33
2018-07-29T18:35:38.848Z,5.03
2018-07-29T18:38:07.290Z,4.90
2018-07-29T18:40:35.521Z,5.30
2018-07-29T18:43:03.695Z,4.17
2018-07-29T18:45:31.980Z,4.40
2018-07-29T18:48:00.199Z,4.80
2018-07-29T18:50:28.436Z,5.30
2018-07-29T18:52:56.672Z,5.60
2018-07-29T18:55:25.085Z,5.43
2018-07-29T18:57:53.319Z,4.50
2018-07-29T19:00:21.608Z,5.93
2018-07-29T19:02:49.840Z,4.70
2018-07-29T19:05:18.045Z,4.50
2018-07-29T19:07:46.225Z,5.17
2018-07-29T19:10:14.406Z,4.97
2018-07-29T19:12:42.576Z,5.03
2018-07-29T19:15:10.844Z,5.23
2018-07-29T19:17:39.114Z,5.33
2018-07-29T19:20:07.309Z,5.70
2018-07-29T19:22:35.490Z,5.20
2018-07-29T19:25:03.738Z,5.03
2018-07-29T19:27:31.927Z,5.47
2018-07-29T19:30:00.164Z,5.93
2018-07-29T19:32:28.305Z,5.30
2018-07-29T19:34:56.481Z,5.60
2018-07-29T19:37:24.659Z,5.27
2018-07-29T19:39:52.829Z,4.73
2018-07-29T19:42:21.003Z,4.90
2018-07-29T19:44:48.996Z,5.83
2018-07-29T19:47:17.249Z,5.87
2018-07-29T19:49:45.340Z,4.87
2018-07-29T19:52:13.523Z,4.90
2018-07-29T19:54:41.714Z,5.77
2018-07-29T19:57:10.168Z,5.87
2018-07-29T19:59:38.383Z,5.17
2018-07-29T20:02:07.341Z,5.33
2018-07-29T20:04:35.572Z,5.10
2018-07-29T20:07:03.945Z,5.53
2018-07-29T20:09:32.271Z,5.50
2018-07-29T20:12:00.522Z,4.60
2018-07-29T20:14:28.505Z,5.00
2018-07-29T20:16:56.692Z,5.57
2018-07-29T20:19:24.942Z,6.10
2018-07-29T20:21:53.648Z,5.57
2018-07-29T20:24:21.862Z,5.67
2018-07-29T20:26:50.222Z,5.40
2018-07-29T20:29:18.640Z,5.83
2018-07-29T20:31:46.909Z,5.47
2018-07-29T20:34:15.168Z,5.30
2018-07-29T20:36:43.493Z,5.83
2018-07-29T20:39:12.698Z,5.60
2018-07-29T20:41:41.566Z,6.17
2018-07-29T20:44:10.876Z,5.93
2018-07-29T20:46:39.061Z,6.30
2018-07-29T20:49:07.132Z,5.70
2018-07-29T20:51:35.375Z,6.30
2018-07-29T20:54:03.852Z,6.13
2018-07-29T20:56:33.102Z,6.80
2018-07-29T20:59:01.484Z,6.27
2018-07-29T21:01:30.756Z,6.13
2018-07-29T21:03:59.036Z,5.40
2018-07-29T21:06:27.332Z,5.60
2018-07-29T21:08:56.712Z,5.83
2018-07-29T21:11:27.007Z,6.97
2018-07-29T21:13:56.228Z,14.20
2018-07-29T21:16:24.509Z,7.13
2018-07-29T21:18:52.683Z,6.53
2018-07-29T21:21:20.910Z,6.47
2018-07-29T21:23:49.190Z,5.70
2018-07-29T21:26:17.360Z,7.37
2018-07-29T21:28:45.469Z,7.17
2018-07-29T21:31:13.637Z,6.90
2018-07-29T21:33:41.780Z,6.73
2018-07-29T21:36:10.143Z,5.90
2018-07-29T21:38:38.286Z,6.40
2018-07-29T21:41:06.519Z,6.30
2018-07-29T21:43:34.591Z,7.00
2018-07-29T21:46:02.767Z,6.60
2018-07-29T21:48:31.008Z,6.53
2018-07-29T21:50:59.472Z,6.20
2018-07-29T21:53:27.646Z,6.33
2018-07-29T21:55:55.817Z,6.67
2018-07-29T21:58:23.964Z,6.30
2018-07-29T22:00:54.893Z,7.07
2018-07-29T22:03:23.232Z,6.50
2018-07-29T22:05:51.415Z,7.77
2018-07-29T22:08:19.693Z,7.60
2018-07-29T22:10:47.877Z,6.20
2018-07-29T22:13:16.033Z,8.00
2018-07-29T22:15:44.522Z,6.73
2018-07-29T22:18:12.708Z,6.87
2018-07-29T22:20:40.955Z,5.93
2018-07-29T22:23:09.297Z,6.53
2018-07-29T22:25:45.712Z,6.70
2018-07-29T22:28:19.322Z,6.30
2018-07-29T22:30:51.940Z,6.90
2018-07-29T22:33:20.127Z,7.17
2018-07-29T22:35:48.325Z,7.10
2018-07-29T22:38:16.504Z,6.80
2018-07-29T22:40:44.696Z,5.67
2018-07-29T22:43:12.964Z,6.63
2018-07-29T22:45:41.156Z,6.03
2018-07-29T22:48:09.350Z,6.80
2018-07-29T22:50:37.673Z,6.80
2018-07-29T22:53:05.879Z,6.67
2018-07-29T22:55:34.068Z,7.40
2018-07-29T22:58:02.240Z,6.80
2018-07-29T23:00:30.442Z,7.50
2018-07-29T23:02:58.681Z,7.20
2018-07-29T23:05:26.898Z,6.10
2018-07-29T23:07:55.096Z,7.83
2018-07-29T23:10:23.312Z,7.50
2018-07-29T23:12:51.558Z,6.50
2018-07-29T23:15:19.770Z,7.00
2018-07-29T23:17:48.033Z,7.53
2018-07-29T23:20:16.280Z,6.80
2018-07-29T23:22:44.425Z,7.80
2018-07-29T23:25:12.645Z,7.03
2018-07-29T23:27:40.897Z,7.93
2018-07-29T23:30:09.132Z,7.37
2018-07-29T23:32:37.356Z,6.90
2018-07-29T23:35:05.644Z,7.00
2018-07-29T23:37:33.844Z,7.43
2018-07-29T23:40:02.045Z,7.40
2018-07-29T23:42:30.396Z,7.53
2018-07-29T23:44:58.596Z,7.20
2018-07-29T23:47:26.783Z,7.27
2018-07-29T23:49:54.972Z,7.97
2018-07-29T23:52:23.185Z,7.17
2018-07-29T23:54:51.448Z,8.03
2018-07-29T23:57:19.647Z,9.30
2018-07-29T23:59:47.959Z,6.67
